Time;durP1;ratioP1;P1;durP2;ratioP2;P2;SDS_P1;SDS_P2;PMS_P1;PMS_P2;Temp;Humidity;BMP_temperature;BMP_pressure;BME280_temperature;BME280_humidity;BME280_pressure;Samples;Min_cycle;Max_cycle;Signal;HPM_P1;HPM_P2
2021/11/19 00:00:27;;;;;;;;;36.25;27.25;;;;;10.38;69.22;103178.09;5100899;27;45340;-91
2021/11/19 00:02:53;;;;;;;;;31.50;28.00;;;;;10.38;68.87;103178.09;5100366;27;45264;-91
2021/11/19 00:05:19;;;;;;;;;35.75;28.75;;;;;10.41;68.97;103177.22;5100774;27;45382;-94
2021/11/19 00:07:45;;;;;;;;;38.75;31.50;;;;;10.41;69.03;103178.13;5104275;27;45800;-94
2021/11/19 00:10:11;;;;;;;;;37.50;30.75;;;;;10.43;69.37;103178.13;5104760;27;45408;-93
2021/11/19 00:12:36;;;;;;;;;30.00;27.00;;;;;10.45;68.95;103176.38;5100953;27;45214;-93
2021/11/19 00:15:04;;;;;;;;;29.00;24.50;;;;;10.45;68.92;103172.00;5100389;27;45270;-92
2021/11/19 00:17:29;;;;;;;;;25.75;21.75;;;;;10.46;68.88;103171.16;5105772;27;45255;-93
2021/11/19 00:19:55;;;;;;;;;36.00;28.25;;;;;10.48;68.88;103171.13;5108409;27;45913;-95
2021/11/19 00:22:20;;;;;;;;;33.50;27.00;;;;;10.47;68.39;103169.38;5099875;27;45890;-95
2021/11/19 00:24:47;;;;;;;;;38.75;26.75;;;;;10.49;68.65;103169.41;5101631;27;46931;-95
2021/11/19 00:27:16;;;;;;;;;31.50;28.25;;;;;10.46;68.48;103165.00;5102362;27;45220;-95
2021/11/19 00:29:43;;;;;;;;;34.25;26.50;;;;;10.43;68.56;103167.59;5118174;27;44723;-95
2021/11/19 00:32:10;;;;;;;;;33.50;28.25;;;;;10.46;68.52;103163.25;5104832;27;45749;-95
2021/11/19 00:34:36;;;;;;;;;33.50;29.00;;;;;10.49;68.83;103172.03;5099462;27;48171;-94
2021/11/19 00:37:02;;;;;;;;;27.50;23.50;;;;;10.49;68.79;103166.78;5103215;27;45671;-94
2021/11/19 00:39:27;;;;;;;;;29.00;25.25;;;;;10.47;68.43;103161.47;5103810;27;45407;-94
2021/11/19 00:41:54;;;;;;;;;30.25;25.75;;;;;10.46;68.52;103162.38;5103357;27;46099;-94
2021/11/19 00:44:22;;;;;;;;;30.00;24.50;;;;;10.46;68.71;103165.00;5102912;27;48243;-94
2021/11/19 00:46:50;;;;;;;;;28.75;25.50;;;;;10.46;68.49;103162.38;5089059;27;45769;-94
2021/11/19 00:49:18;;;;;;;;;33.00;25.00;;;;;10.47;68.82;103158.84;5097006;27;45180;-95
2021/11/19 00:51:47;;;;;;;;;34.00;27.00;;;;;10.46;68.67;103160.63;5084600;27;47188;-93
2021/11/19 00:54:14;;;;;;;;;28.50;25.00;;;;;10.46;68.93;103160.63;5104021;27;46788;-93
2021/11/19 00:56:44;;;;;;;;;28.50;22.75;;;;;10.48;68.64;103165.88;5101928;27;45319;-93
2021/11/19 00:59:11;;;;;;;;;26.00;22.50;;;;;10.49;68.65;103158.88;5109568;27;45433;-96
2021/11/19 01:06:49;;;;;;;;;31.75;26.25;;;;;10.48;68.58;103152.72;5046090;28;45150;-94
2021/11/19 01:09:28;;;;;;;;;35.00;29.50;;;;;10.46;68.75;103157.09;5065077;28;45282;-96
2021/11/19 01:11:56;;;;;;;;;30.75;25.50;;;;;10.47;68.63;103154.47;5043131;28;46249;-88
2021/11/19 01:14:26;;;;;;;;;32.50;29.50;;;;;10.46;68.59;103151.84;5039747;28;46293;-88
2021/11/19 01:16:58;;;;;;;;;27.50;25.25;;;;;10.47;68.57;103150.97;5040742;28;46315;-89
2021/11/19 01:19:31;;;;;;;;;28.50;27.50;;;;;10.46;68.87;103141.34;5041845;28;45304;-88
2021/11/19 01:22:01;;;;;;;;;33.00;29.25;;;;;10.48;68.88;103150.09;5040211;28;46111;-88
2021/11/19 01:24:28;;;;;;;;;33.00;26.25;;;;;10.49;68.83;103141.34;5041710;28;46371;-92
2021/11/19 01:26:53;;;;;;;;;31.50;28.00;;;;;10.49;68.67;103144.00;5037922;28;45690;-85
2021/11/19 01:29:19;;;;;;;;;33.50;29.50;;;;;10.49;68.73;103138.72;5042125;28;45480;-88
2021/11/19 01:31:58;;;;;;;;;38.00;26.75;;;;;10.50;68.81;103142.22;5040066;28;45429;-86
2021/11/19 01:34:25;;;;;;;;;29.50;25.25;;;;;10.48;68.50;103139.59;5039552;28;45403;-86
2021/11/19 01:36:50;;;;;;;;;30.25;26.50;;;;;10.49;68.70;103136.09;5041695;28;45799;-87
2021/11/19 01:39:23;;;;;;;;;26.75;21.75;;;;;10.50;68.76;103137.84;5041672;28;45527;-83
2021/11/19 01:41:53;;;;;;;;;28.25;25.75;;;;;10.48;68.58;103134.31;5029110;28;45298;-84
2021/11/19 01:44:25;;;;;;;;;38.00;28.75;;;;;10.49;68.67;103141.34;5041496;28;45478;-83
2021/11/19 01:46:53;;;;;;;;;32.00;22.00;;;;;10.50;68.51;103136.97;5041642;28;45495;-81
2021/11/19 01:49:20;;;;;;;;;31.00;27.75;;;;;10.50;68.70;103127.31;5041779;28;45326;-81
2021/11/19 01:51:53;;;;;;;;;34.25;31.50;;;;;10.52;68.60;103130.00;5040372;28;45400;-82
2021/11/19 01:54:27;;;;;;;;;29.75;24.25;;;;;10.52;68.41;103130.88;5039844;28;48681;-82
2021/11/19 01:57:01;;;;;;;;;35.25;25.50;;;;;10.52;68.56;103124.75;5041621;28;45748;-82
2021/11/19 01:59:38;;;;;;;;;30.50;26.00;;;;;10.53;68.47;103127.38;5057101;28;45421;-83
2021/11/19 02:02:08;;;;;;;;;31.25;28.00;;;;;10.54;68.56;103129.13;5040459;28;45425;-83
2021/11/19 02:04:43;;;;;;;;;29.00;25.50;;;;;10.54;68.29;103118.59;5033501;28;45465;-83
2021/11/19 02:07:19;;;;;;;;;31.00;26.75;;;;;10.55;68.51;103124.75;5028481;28;45225;-86
2021/11/19 02:10:10;;;;;;;;;29.75;27.00;;;;;10.55;68.34;103128.25;5040268;28;45235;-83
2021/11/19 02:13:01;;;;;;;;;29.25;23.25;;;;;10.54;68.39;103123.88;5040949;28;45618;-85
2021/11/19 02:15:33;;;;;;;;;31.00;28.25;;;;;10.51;68.20;103121.25;5041236;28;45622;-85
2021/11/19 02:18:04;;;;;;;;;25.50;23.75;;;;;10.51;68.18;103126.50;5040974;28;45789;-82
2021/11/19 02:20:35;;;;;;;;;26.50;23.25;;;;;10.52;68.47;103125.59;5056048;28;45385;-84
2021/11/19 02:23:24;;;;;;;;;30.25;25.50;;;;;10.51;68.34;103131.75;5040785;28;45300;-86
2021/11/19 02:25:55;;;;;;;;;26.25;24.00;;;;;10.53;68.46;103131.75;5029726;28;46640;-86
2021/11/19 02:28:24;;;;;;;;;26.75;25.00;;;;;10.53;68.55;103115.97;5039866;28;46886;-86
2021/11/19 02:30:54;;;;;;;;;33.25;28.00;;;;;10.55;68.69;103124.75;5040172;28;45335;-85
2021/11/19 02:33:21;;;;;;;;;34.00;26.25;;;;;10.52;68.74;103115.09;5040735;28;45487;-87
2021/11/19 02:35:46;;;;;;;;;29.50;23.00;;;;;10.56;68.38;103129.16;5055974;28;47086;-86
2021/11/19 02:38:12;;;;;;;;;28.33;27.00;;;;;10.54;68.54;103123.88;5040217;28;45364;-86
2021/11/19 02:40:41;;;;;;;;;35.25;30.00;;;;;10.58;68.46;103132.66;5040940;28;45453;-94
2021/11/19 02:43:17;;;;;;;;;31.00;28.75;;;;;10.55;68.60;103123.00;5055990;28;46126;-91
2021/11/19 02:45:46;;;;;;;;;30.50;27.50;;;;;10.55;68.74;103119.50;5039526;28;47392;-91
2021/11/19 02:48:16;;;;;;;;;38.25;29.25;;;;;10.57;68.61;103123.88;5038224;28;46008;-91
2021/11/19 02:50:42;;;;;;;;;32.75;27.25;;;;;10.56;68.64;103116.88;5038328;28;45433;-90
2021/11/19 02:53:09;;;;;;;;;38.25;28.75;;;;;10.57;68.65;103121.25;5040623;28;45567;-90
2021/11/19 02:55:39;;;;;;;;;36.25;28.25;;;;;10.54;68.63;103115.97;5040621;28;46701;-89
2021/11/19 02:58:08;;;;;;;;;26.75;23.75;;;;;10.56;68.43;103116.00;5039365;28;45737;-89
2021/11/19 03:00:42;;;;;;;;;30.00;25.75;;;;;10.58;68.37;103123.03;5040585;28;45170;-90
2021/11/19 03:03:08;;;;;;;;;32.50;27.75;;;;;10.55;68.33;103115.13;5040195;28;45679;-90
2021/11/19 03:05:33;;;;;;;;;32.00;28.00;;;;;10.57;68.33;103110.75;5040266;28;45925;-89
2021/11/19 03:07:59;;;;;;;;;30.25;27.50;;;;;10.58;68.41;103117.78;5038804;28;45226;-89
2021/11/19 03:10:38;;;;;;;;;28.25;18.00;;;;;10.57;67.99;103117.75;5040635;28;45204;-89
2021/11/19 03:13:06;;;;;;;;;30.75;25.75;;;;;10.55;68.15;103107.22;5040331;28;45301;-88
2021/11/19 03:15:36;;;;;;;;;29.00;24.75;;;;;10.55;68.16;103108.97;5040311;28;46187;-89
2021/11/19 03:18:02;;;;;;;;;33.25;25.00;;;;;10.52;68.20;103115.09;5038015;28;45919;-92
2021/11/19 03:20:28;;;;;;;;;30.75;24.75;;;;;10.52;67.90;103107.19;5055612;28;45467;-85
2021/11/19 03:22:55;;;;;;;;;29.00;24.50;;;;;10.53;68.27;103111.59;5039924;28;45761;-85
2021/11/19 03:25:25;;;;;;;;;30.75;24.00;;;;;10.53;68.17;103110.72;5038674;28;48320;-86
2021/11/19 03:27:50;;;;;;;;;27.25;20.75;;;;;10.49;68.10;103101.91;5033098;28;45227;-86
2021/11/19 03:30:18;;;;;;;;;32.25;27.00;;;;;10.48;68.18;103108.03;5040128;28;45624;-86
2021/11/19 03:32:45;;;;;;;;;28.25;22.75;;;;;10.47;68.10;103111.53;5038695;28;46122;-87
2021/11/19 03:35:14;;;;;;;;;28.75;23.25;;;;;10.46;68.11;103104.53;5039970;28;45354;-87
2021/11/19 03:37:42;;;;;;;;;25.00;22.75;;;;;10.45;68.16;103108.00;5053933;28;45818;-87
2021/11/19 03:40:08;;;;;;;;;25.25;23.00;;;;;10.47;68.13;103104.53;5040186;28;45633;-88
2021/11/19 03:42:34;;;;;;;;;26.75;24.25;;;;;10.46;68.28;103104.53;5039744;28;45512;-85
2021/11/19 03:45:02;;;;;;;;;27.00;24.00;;;;;10.47;68.26;103106.25;5040145;28;45404;-85
2021/11/19 03:47:43;;;;;;;;;23.75;21.75;;;;;10.44;68.13;103098.38;5038063;28;45805;-85
2021/11/19 03:50:37;;;;;;;;;37.75;28.25;;;;;10.45;68.18;103095.75;5039929;28;45439;-85
2021/11/19 03:53:03;;;;;;;;;32.25;23.50;;;;;10.44;68.18;103095.75;5039498;28;45496;-84
2021/11/19 03:55:33;;;;;;;;;29.50;21.50;;;;;10.43;68.38;103099.25;5037399;28;45473;-88
2021/11/19 03:57:59;;;;;;;;;36.50;31.75;;;;;10.44;68.23;103095.75;5027150;28;45358;-88
2021/11/19 04:00:37;;;;;;;;;41.75;32.50;;;;;10.45;68.02;103094.84;5039899;28;45185;-86
2021/11/19 04:03:04;;;;;;;;;36.00;29.00;;;;;10.44;68.22;103101.91;5039682;28;45539;-83
2021/11/19 04:05:30;;;;;;;;;44.25;31.00;;;;;10.44;68.46;103095.75;5037132;28;45491;-83
2021/11/19 04:07:56;;;;;;;;;33.50;29.50;;;;;10.44;68.03;103090.50;5039440;28;45448;-82
2021/11/19 04:10:22;;;;;;;;;36.75;29.75;;;;;10.47;68.27;103103.63;5039831;28;45601;-82
2021/11/19 04:12:48;;;;;;;;;29.00;26.25;;;;;10.46;67.75;103104.53;5038704;28;45495;-82
2021/11/19 04:15:18;;;;;;;;;22.75;22.75;;;;;10.45;68.33;103100.13;5039150;28;46509;-82
2021/11/19 04:17:44;;;;;;;;;29.25;25.50;;;;;10.44;68.18;103104.53;5037634;28;45819;-83
2021/11/19 04:20:12;;;;;;;;;27.50;24.25;;;;;10.48;68.18;103105.41;5039154;28;45379;-82
2021/11/19 04:22:37;;;;;;;;;25.50;22.75;;;;;10.44;68.20;103103.63;5038010;28;46425;-82
2021/11/19 04:25:05;;;;;;;;;27.00;22.25;;;;;10.49;68.08;103108.91;5038928;28;46399;-82
2021/11/19 04:27:32;;;;;;;;;35.50;25.50;;;;;10.46;68.13;103100.16;5038977;28;46012;-82
2021/11/19 04:30:00;;;;;;;;;31.75;27.75;;;;;10.46;68.33;103100.16;5039458;28;45515;-82
2021/11/19 04:32:25;;;;;;;;;30.00;22.50;;;;;10.49;68.03;103108.91;5037659;28;45312;-82
2021/11/19 04:34:53;;;;;;;;;27.00;21.75;;;;;10.47;67.91;103111.53;5038833;28;45492;-82
2021/11/19 04:37:19;;;;;;;;;28.25;19.00;;;;;10.47;67.92;103104.53;5038833;28;45797;-82
2021/11/19 04:39:45;;;;;;;;;24.25;20.75;;;;;10.48;68.08;103108.03;5039455;28;45227;-82
2021/11/19 04:42:11;;;;;;;;;22.00;18.00;;;;;10.50;68.15;103110.66;5037915;28;45643;-83
2021/11/19 04:44:37;;;;;;;;;22.25;21.25;;;;;10.50;68.09;103102.78;5038935;28;45985;-83
2021/11/19 04:47:04;;;;;;;;;30.50;21.75;;;;;10.51;68.03;103100.22;5038890;28;45387;-85
2021/11/19 04:49:30;;;;;;;;;26.25;21.25;;;;;10.52;67.82;103103.72;5039086;28;45298;-85
2021/11/19 04:51:56;;;;;;;;;24.25;18.50;;;;;10.51;67.89;103099.31;5037566;28;45738;-84
2021/11/19 04:54:23;;;;;;;;;25.25;22.75;;;;;10.53;68.04;103106.34;5026496;28;45498;-85
2021/11/19 04:56:49;;;;;;;;;27.00;20.75;;;;;10.51;67.94;103102.84;5038881;28;45305;-83
2021/11/19 04:59:16;;;;;;;;;24.50;23.00;;;;;10.54;67.85;103109.84;5039130;28;45309;-85
2021/11/19 05:01:48;;;;;;;;;25.25;20.00;;;;;10.55;67.81;103107.22;5054192;28;46250;-85
2021/11/19 05:04:15;;;;;;;;;24.00;18.00;;;;;10.54;67.76;103108.09;5035229;28;48200;-85
2021/11/19 05:06:42;;;;;;;;;24.25;23.00;;;;;10.54;67.65;103107.22;5038170;28;45256;-86
2021/11/19 05:09:09;;;;;;;;;28.75;23.00;;;;;10.52;67.78;103106.34;5042600;28;45309;-85
2021/11/19 05:11:57;;;;;;;;;20.25;18.75;;;;;10.51;67.66;103100.22;5057485;28;46200;-86
2021/11/19 05:14:23;;;;;;;;;18.25;16.75;;;;;10.50;67.75;103098.41;5029311;28;46884;-90
2021/11/19 05:16:49;;;;;;;;;26.50;20.25;;;;;10.53;67.62;103110.72;5042002;28;45228;-90
2021/11/19 05:19:15;;;;;;;;;26.75;18.75;;;;;10.54;67.59;103100.19;5040791;28;45448;-88
2021/11/19 05:21:42;;;;;;;;;17.50;15.25;;;;;10.53;67.51;103105.47;5040296;28;46868;-87
2021/11/19 05:24:09;;;;;;;;;26.50;21.75;;;;;10.51;67.53;103094.94;5039329;28;47298;-88
2021/11/19 05:26:36;;;;;;;;;22.75;17.25;;;;;10.49;67.71;103093.13;5041887;28;45335;-88
2021/11/19 05:29:03;;;;;;;;;24.25;21.50;;;;;10.49;67.40;103086.13;5041801;28;45405;-87
2021/11/19 05:31:29;;;;;;;;;26.75;20.00;;;;;10.50;67.23;103084.38;5040991;28;45457;-87
2021/11/19 05:33:54;;;;;;;;;29.25;23.25;;;;;10.49;67.49;103085.25;5041488;28;45275;-87
2021/11/19 05:36:20;;;;;;;;;25.25;21.25;;;;;10.49;67.83;103088.78;5040817;28;45234;-83
2021/11/19 05:38:45;;;;;;;;;27.75;21.75;;;;;10.52;67.73;103090.56;5042102;28;45411;-84
2021/11/19 05:41:14;;;;;;;;;30.00;21.00;;;;;10.48;67.86;103087.00;5040625;28;45422;-83
2021/11/19 05:43:43;;;;;;;;;24.25;21.00;;;;;10.49;67.64;103093.13;5041579;28;46363;-82
2021/11/19 05:46:09;;;;;;;;;29.25;25.50;;;;;10.51;67.80;103094.06;5041517;28;45222;-82
2021/11/19 05:48:35;;;;;;;;;27.25;23.00;;;;;10.50;67.76;103090.50;5041736;28;45212;-82
2021/11/19 05:51:01;;;;;;;;;25.00;22.75;;;;;10.52;67.92;103101.09;5040347;28;45157;-82
2021/11/19 05:53:26;;;;;;;;;25.75;24.25;;;;;10.51;67.81;103091.44;5041639;28;45455;-83
2021/11/19 05:55:52;;;;;;;;;27.25;25.00;;;;;10.52;67.79;103098.47;5041264;28;45469;-83
2021/11/19 05:58:20;;;;;;;;;27.50;25.50;;;;;10.54;67.67;103102.81;5039869;28;45584;-82
2021/11/19 06:00:47;;;;;;;;;30.75;25.00;;;;;10.52;67.94;103104.56;5056681;28;45693;-82
2021/11/19 06:03:13;;;;;;;;;22.00;20.25;;;;;10.50;67.90;103094.88;5041376;28;45310;-82
2021/11/19 06:05:38;;;;;;;;;28.00;25.25;;;;;10.51;67.72;103102.84;5040037;28;45196;-82
2021/11/19 06:08:06;;;;;;;;;27.50;22.75;;;;;10.51;67.44;103108.09;5040710;28;45285;-82
2021/11/19 06:10:32;;;;;;;;;22.00;18.75;;;;;10.52;67.45;103111.59;5056900;28;45423;-85
2021/11/19 06:13:04;;;;;;;;;24.25;19.25;;;;;10.52;67.66;103111.59;5040081;28;46059;-85
2021/11/19 06:15:34;;;;;;;;;22.75;20.25;;;;;10.54;67.65;103108.09;5041014;28;45362;-83
2021/11/19 06:18:16;;;;;;;;;21.50;19.00;;;;;10.52;67.51;103101.09;5040148;28;45432;-83
2021/11/19 06:21:00;;;;;;;;;21.75;21.25;;;;;10.54;67.88;103107.22;5041025;28;45256;-84
2021/11/19 06:23:31;;;;;;;;;23.00;19.25;;;;;10.50;67.76;103101.03;5038804;28;45405;-85
2021/11/19 06:26:00;;;;;;;;;19.00;18.00;;;;;10.54;67.72;103105.44;5040978;28;45763;-90
2021/11/19 06:28:30;;;;;;;;;18.00;17.50;;;;;10.52;67.93;103096.69;5037910;28;45521;-90
2021/11/19 06:30:55;;;;;;;;;23.50;20.00;;;;;10.54;67.88;103112.50;5032235;28;46105;-90
2021/11/19 06:33:22;;;;;;;;;20.00;19.00;;;;;10.55;67.76;103108.97;5039591;28;45471;-88
2021/11/19 06:35:48;;;;;;;;;24.25;20.75;;;;;10.54;67.57;103100.19;5034596;28;45720;-89
2021/11/19 06:38:16;;;;;;;;;21.50;17.25;;;;;10.56;67.85;103114.25;5033514;28;45227;-88
2021/11/19 06:40:42;;;;;;;;;21.00;19.00;;;;;10.55;67.94;103106.34;5040170;28;45942;-88
2021/11/19 06:43:07;;;;;;;;;20.00;18.25;;;;;10.56;67.71;103106.38;5039821;28;46444;-88
2021/11/19 06:45:35;;;;;;;;;17.50;17.00;;;;;10.54;67.66;103105.44;5056251;28;45412;-88
2021/11/19 06:48:04;;;;;;;;;22.50;20.50;;;;;10.58;67.93;103116.88;5039752;28;45363;-89
2021/11/19 06:50:30;;;;;;;;;22.75;20.50;;;;;10.59;67.62;103121.28;5039346;28;45926;-88
2021/11/19 06:52:56;;;;;;;;;20.00;19.25;;;;;10.57;67.53;103116.00;5040132;28;45603;-88
2021/11/19 06:55:21;;;;;;;;;22.00;16.25;;;;;10.58;67.72;103115.13;5040831;28;45393;-88
2021/11/19 06:57:48;;;;;;;;;19.00;16.75;;;;;10.62;67.56;103115.16;5039202;28;45477;-88
2021/11/19 07:00:19;;;;;;;;;20.75;16.50;;;;;10.62;67.68;103116.03;5040064;28;45419;-88
2021/11/19 07:02:44;;;;;;;;;27.75;25.50;;;;;10.61;67.70;103116.03;5032032;28;45627;-88
2021/11/19 07:05:10;;;;;;;;;24.50;21.00;;;;;10.60;67.24;103119.50;5040016;28;45343;-87
2021/11/19 07:07:36;;;;;;;;;25.25;21.25;;;;;10.62;67.57;103123.06;5040297;28;45172;-86
2021/11/19 07:10:03;;;;;;;;;24.75;23.00;;;;;10.60;67.51;103117.78;5039177;28;45376;-87
2021/11/19 07:12:29;;;;;;;;;20.50;16.00;;;;;10.62;67.58;103126.53;5037330;28;47192;-87
2021/11/19 07:14:54;;;;;;;;;22.00;20.00;;;;;10.63;67.38;103137.94;5037968;28;45673;-87
2021/11/19 07:17:19;;;;;;;;;22.00;20.00;;;;;10.65;67.67;103141.47;5040064;28;45472;-86
2021/11/19 07:19:45;;;;;;;;;23.25;20.00;;;;;10.65;67.62;103146.72;5038640;28;45410;-86
2021/11/19 07:22:11;;;;;;;;;23.50;23.00;;;;;10.66;67.98;103152.00;5036613;28;47900;-87
2021/11/19 07:24:39;;;;;;;;;20.25;18.50;;;;;10.64;67.75;103143.19;5036245;28;45333;-86
2021/11/19 07:27:06;;;;;;;;;16.25;15.50;;;;;10.65;67.42;103151.97;5039555;28;45192;-93
2021/11/19 07:29:32;;;;;;;;;22.00;20.50;;;;;10.65;67.55;103149.34;5040878;28;46057;-86
2021/11/19 07:31:58;;;;;;;;;20.00;18.00;;;;;10.65;67.56;103157.25;5040107;28;45237;-85
2021/11/19 07:34:23;;;;;;;;;23.75;19.25;;;;;10.66;67.41;103159.00;5036510;28;45414;-87
2021/11/19 07:36:49;;;;;;;;;22.75;21.25;;;;;10.67;67.74;103163.38;5038770;28;45548;-85
2021/11/19 07:39:15;;;;;;;;;23.25;22.00;;;;;10.67;67.52;103160.75;5039221;28;45524;-85
2021/11/19 07:41:40;;;;;;;;;20.00;18.00;;;;;10.69;67.59;103165.16;5039578;28;45432;-85
2021/11/19 07:44:06;;;;;;;;;24.50;18.25;;;;;10.71;68.00;103167.81;5038855;28;45322;-85
2021/11/19 07:46:32;;;;;;;;;23.25;20.25;;;;;10.71;67.77;103167.81;5040020;28;45359;-85
2021/11/19 07:48:58;;;;;;;;;27.75;22.75;;;;;10.71;67.84;103172.19;5039522;28;45372;-85
2021/11/19 07:51:36;;;;;;;;;24.50;23.25;;;;;10.73;67.82;103179.22;5039423;28;45404;-85
2021/11/19 07:54:03;;;;;;;;;22.50;21.00;;;;;10.74;68.02;103173.06;5037834;28;45461;-85
2021/11/19 07:56:31;;;;;;;;;26.25;20.25;;;;;10.76;67.38;103175.72;5037980;28;45341;-86
2021/11/19 07:58:59;;;;;;;;;24.25;21.75;;;;;10.76;67.78;103176.63;5039861;28;45224;-85
2021/11/19 08:01:24;;;;;;;;;23.75;22.00;;;;;10.77;67.76;103167.84;5038552;28;46302;-85
2021/11/19 08:03:50;;;;;;;;;21.25;20.25;;;;;10.82;67.80;103180.13;5038689;28;45231;-85
2021/11/19 08:06:15;;;;;;;;;27.25;23.25;;;;;10.81;67.78;103181.91;5039077;28;46089;-85
2021/11/19 08:08:41;;;;;;;;;28.00;23.75;;;;;10.83;67.63;103179.25;5039491;28;45402;-85
2021/11/19 08:11:13;;;;;;;;;27.75;24.75;;;;;10.84;67.68;103181.03;5038430;28;46276;-85
2021/11/19 08:13:38;;;;;;;;;32.50;27.25;;;;;10.85;67.58;103169.63;5039152;28;45456;-85
2021/11/19 08:16:05;;;;;;;;;20.75;18.75;;;;;10.87;67.64;103175.75;5039521;28;45539;-85
2021/11/19 08:18:35;;;;;;;;;22.25;22.25;;;;;10.92;67.75;103181.94;5038953;28;46483;-85
2021/11/19 08:21:02;;;;;;;;;29.50;24.00;;;;;10.92;67.35;103181.94;5037848;28;45577;-85
2021/11/19 08:23:37;;;;;;;;;26.50;24.25;;;;;10.95;67.73;103184.59;5027383;28;45826;-85
2021/11/19 08:26:21;;;;;;;;;25.50;23.25;;;;;10.94;67.54;103182.81;5036679;28;45464;-85
2021/11/19 08:28:48;;;;;;;;;30.00;25.25;;;;;10.96;67.58;103183.72;5038915;28;45335;-85
2021/11/19 08:31:16;;;;;;;;;29.25;28.00;;;;;11.00;67.46;103187.25;5039299;28;45476;-85
2021/11/19 08:33:42;;;;;;;;;29.50;23.25;;;;;11.03;68.04;103187.25;5037905;28;45926;-85
2021/11/19 08:36:08;;;;;;;;;27.75;23.75;;;;;11.02;67.68;103183.75;5039094;28;45567;-85
2021/11/19 08:38:34;;;;;;;;;30.25;26.50;;;;;11.03;67.81;103177.63;5039202;28;45453;-85
2021/11/19 08:41:00;;;;;;;;;26.00;25.00;;;;;11.05;67.68;103176.72;5039294;28;45397;-85
2021/11/19 08:43:30;;;;;;;;;26.25;24.50;;;;;11.08;67.60;103172.38;5042153;28;45770;-85
2021/11/19 08:45:58;;;;;;;;;32.75;29.00;;;;;11.11;67.63;103175.00;5041662;28;45307;-85
2021/11/19 08:48:26;;;;;;;;;30.00;27.50;;;;;11.15;67.59;103178.53;5041295;28;46148;-85
2021/11/19 08:50:53;;;;;;;;;32.75;28.00;;;;;11.16;67.26;103175.00;5042392;28;45286;-85
2021/11/19 08:53:19;;;;;;;;;36.75;29.00;;;;;11.17;67.36;103166.25;5042404;28;45257;-85
2021/11/19 08:55:51;;;;;;;;;29.50;28.50;;;;;11.21;67.66;103170.66;5042902;28;45180;-85
2021/11/19 08:58:19;;;;;;;;;31.00;29.00;;;;;11.22;67.47;103176.81;5041167;28;45170;-85
2021/11/19 09:00:46;;;;;;;;;38.25;30.25;;;;;11.24;67.74;103177.69;5035068;28;45313;-85
2021/11/19 09:03:12;;;;;;;;;31.00;26.75;;;;;11.28;67.25;103173.31;5041729;28;45836;-85
2021/11/19 09:05:39;;;;;;;;;31.50;28.25;;;;;11.31;67.40;103171.56;5040389;28;45413;-83
2021/11/19 09:08:07;;;;;;;;;32.25;29.50;;;;;11.33;67.18;103175.06;5040987;28;45441;-83
2021/11/19 09:10:33;;;;;;;;;37.00;30.75;;;;;11.34;67.38;103178.59;5042344;28;45326;-83
2021/11/19 09:12:59;;;;;;;;;31.25;29.25;;;;;11.38;67.54;103176.88;5042246;28;45440;-83
2021/11/19 09:15:26;;;;;;;;;30.50;29.00;;;;;11.43;66.88;103177.75;5042432;28;45224;-82
2021/11/19 09:18:17;;;;;;;;;32.75;30.00;;;;;11.44;67.45;103183.00;5040461;28;45544;-83
2021/11/19 09:20:48;;;;;;;;;33.25;30.50;;;;;11.50;67.51;103183.91;5040691;28;46434;-83
2021/11/19 09:23:25;;;;;;;;;38.50;31.75;;;;;11.52;67.28;103177.78;5042140;28;45953;-83
2021/11/19 09:25:53;;;;;;;;;32.50;29.25;;;;;11.56;67.80;103186.53;5041996;28;45307;-83
2021/11/19 09:28:22;;;;;;;;;37.00;31.50;;;;;11.59;67.14;103183.94;5041689;28;45310;-83
2021/11/19 09:30:52;;;;;;;;;34.00;30.00;;;;;11.60;67.14;103183.06;5038583;28;46538;-82
2021/11/19 09:33:20;;;;;;;;;42.00;32.25;;;;;11.62;67.25;103189.22;5038264;28;45740;-82
2021/11/19 09:35:47;;;;;;;;;39.00;32.25;;;;;11.65;66.82;103190.97;5039472;28;45610;-84
2021/11/19 09:38:15;;;;;;;;;38.00;31.50;;;;;11.68;66.45;103189.22;5055248;28;46493;-85
2021/11/19 09:41:04;;;;;;;;;41.50;33.75;;;;;11.69;66.54;103190.97;5040342;28;48251;-84
2021/11/19 09:44:00;;;;;;;;;42.50;34.50;;;;;11.72;66.81;103194.50;5056699;28;45416;-85
2021/11/19 09:46:37;;;;;;;;;33.00;31.00;;;;;11.75;66.57;103197.13;5043555;28;45300;-85
2021/11/19 09:49:16;;;;;;;;;43.75;32.75;;;;;11.78;66.72;103197.13;5034394;28;45957;-85
2021/11/19 09:52:13;;;;;;;;;38.75;33.00;;;;;11.81;66.55;103189.22;5039814;28;47169;-85
2021/11/19 09:54:48;;;;;;;;;43.50;33.00;;;;;11.84;66.68;103188.34;5024633;28;45709;-85
2021/11/19 09:57:22;;;;;;;;;34.25;31.75;;;;;11.89;66.63;103186.59;5039143;28;47273;-84
2021/11/19 10:00:11;;;;;;;;;40.75;32.00;;;;;11.88;66.46;103185.72;5040187;28;46006;-85
2021/11/19 10:02:51;;;;;;;;;38.00;31.50;;;;;11.96;66.85;103187.47;5040932;28;46409;-84
2021/11/19 10:05:40;;;;;;;;;44.25;35.75;;;;;11.97;66.40;103184.88;5040058;28;45878;-85
2021/11/19 10:09:03;;;;;;;;;37.50;31.00;;;;;12.02;66.74;103179.59;5041283;28;45318;-85
2021/11/19 10:11:45;;;;;;;;;48.25;34.75;;;;;12.06;66.64;103177.81;4999401;28;45560;-85
2021/11/19 10:14:40;;;;;;;;;37.50;33.75;;;;;12.08;66.35;103176.94;4982600;28;48201;-85
2021/11/19 10:17:05;;;;;;;;;37.25;33.50;;;;;12.13;66.17;103174.34;5018276;28;46138;-84
2021/11/19 10:19:44;;;;;;;;;44.25;36.75;;;;;12.17;66.25;103175.22;5032638;28;45488;-83
2021/11/19 10:22:18;;;;;;;;;45.25;35.00;;;;;12.17;65.78;103172.59;5039437;28;45571;-83
2021/11/19 10:25:19;;;;;;;;;38.00;34.25;;;;;12.20;65.99;103172.59;5032184;28;45555;-83
2021/11/19 10:27:51;;;;;;;;;40.25;33.50;;;;;12.19;65.80;103179.63;5037733;28;45606;-82
2021/11/19 10:30:21;;;;;;;;;40.25;33.50;;;;;12.21;65.92;103171.69;5035706;28;46860;-83
2021/11/19 10:32:47;;;;;;;;;37.50;32.00;;;;;12.26;66.13;103181.38;5035659;28;46488;-82
2021/11/19 10:35:18;;;;;;;;;39.25;33.25;;;;;12.29;66.13;103172.59;5037900;28;48245;-83
2021/11/19 10:37:54;;;;;;;;;38.50;31.75;;;;;12.32;65.98;103164.66;5037035;28;47120;-83
2021/11/19 10:40:38;;;;;;;;;38.50;32.00;;;;;12.36;66.43;103168.19;5037736;28;45382;-83
2021/11/19 10:43:37;;;;;;;;;35.75;31.50;;;;;12.40;65.98;103164.66;5039730;28;45329;-83
2021/11/19 10:46:57;;;;;;;;;38.75;33.50;;;;;12.41;65.81;103166.41;5053849;28;48748;-83
2021/11/19 10:49:34;;;;;;;;;40.75;32.50;;;;;12.46;65.63;103164.66;5027781;28;45466;-84
2021/11/19 10:52:15;;;;;;;;;41.00;33.00;;;;;12.48;65.51;103162.00;5036647;28;45456;-83
2021/11/19 10:55:03;;;;;;;;;42.25;33.00;;;;;12.51;65.79;103158.47;5025527;28;45457;-82
2021/11/19 10:57:34;;;;;;;;;38.75;33.00;;;;;12.52;65.64;103155.81;5040719;28;45527;-83
2021/11/19 11:00:09;;;;;;;;;48.50;38.75;;;;;12.56;65.83;103161.97;5031696;28;45756;-83
2021/11/19 11:02:48;;;;;;;;;58.50;45.00;;;;;12.58;65.90;103157.56;5038147;28;45361;-82
2021/11/19 11:05:41;;;;;;;;;48.75;38.75;;;;;12.61;66.01;103152.31;5028305;28;46564;-81
2021/11/19 11:08:19;;;;;;;;;43.75;34.25;;;;;12.64;65.69;103148.78;5011421;28;47073;-81
2021/11/19 11:10:51;;;;;;;;;40.00;35.50;;;;;12.66;65.70;103149.66;5040100;28;45575;-81
2021/11/19 11:13:43;;;;;;;;;42.25;33.75;;;;;12.69;65.41;103154.94;5030170;28;45330;-86
2021/11/19 11:16:17;;;;;;;;;44.75;35.00;;;;;12.70;65.35;103149.63;5028542;28;45602;-86
2021/11/19 11:19:07;;;;;;;;;42.50;36.75;;;;;12.71;65.30;103147.88;5043803;28;47010;-85
2021/11/19 11:22:04;;;;;;;;;38.50;33.00;;;;;12.76;65.27;103147.84;5039113;28;45815;-86
2021/11/19 11:24:51;;;;;;;;;46.00;35.25;;;;;12.78;65.34;103141.69;5030722;28;45366;-86
2021/11/19 11:27:48;;;;;;;;;42.00;35.50;;;;;12.82;65.49;103139.91;5036563;28;45583;-85
2021/11/19 11:30:20;;;;;;;;;46.00;36.00;;;;;12.85;65.49;103141.66;5035660;28;46320;-85